sensor_id;sensor_type;location;lat;lon;timestamp;temperature;humidity
40340;DHT22;26044;50.864;20.658;2023-02-01T00:00:33;1.90;99.90
40340;DHT22;26044;50.864;20.658;2023-02-01T00:03:01;2.00;99.90
40340;DHT22;26044;50.864;20.658;2023-02-01T00:05:28;2.00;99.90
40340;DHT22;26044;50.864;20.658;2023-02-01T00:07:55;2.00;99.90
40340;DHT22;26044;50.864;20.658;2023-02-01T00:10:23;2.00;99.90
40340;DHT22;26044;50.864;20.658;2023-02-01T00:12:50;2.00;99.90
40340;DHT22;26044;50.864;20.658;2023-02-01T00:15:19;2.10;99.90
40340;DHT22;26044;50.864;20.658;2023-02-01T00:17:47;2.10;99.90
40340;DHT22;26044;50.864;20.658;2023-02-01T00:20:14;2.10;99.90
40340;DHT22;26044;50.864;20.658;2023-02-01T00:22:41;2.10;99.90
40340;DHT22;26044;50.864;20.658;2023-02-01T00:25:08;2.10;99.90
40340;DHT22;26044;50.864;20.658;2023-02-01T00:27:35;2.20;99.90
40340;DHT22;26044;50.864;20.658;2023-02-01T00:30:03;2.20;99.90
40340;DHT22;26044;50.864;20.658;2023-02-01T00:32:30;2.20;99.90
40340;DHT22;26044;50.864;20.658;2023-02-01T00:34:58;2.20;99.90
40340;DHT22;26044;50.864;20.658;2023-02-01T00:37:25;2.20;99.90
40340;DHT22;26044;50.864;20.658;2023-02-01T00:39:52;2.30;99.90
40340;DHT22;26044;50.864;20.658;2023-02-01T00:42:21;2.30;99.90
40340;DHT22;26044;50.864;20.658;2023-02-01T00:44:48;2.30;99.90
40340;DHT22;26044;50.864;20.658;2023-02-01T00:47:15;2.30;99.90
40340;DHT22;26044;50.864;20.658;2023-02-01T00:49:41;2.30;99.90
40340;DHT22;26044;50.864;20.658;2023-02-01T00:52:08;2.40;99.90
40340;DHT22;26044;50.864;20.658;2023-02-01T00:54:35;2.30;99.90
40340;DHT22;26044;50.864;20.658;2023-02-01T00:57:03;2.30;99.90
40340;DHT22;26044;50.864;20.658;2023-02-01T00:59:30;2.30;99.90
40340;DHT22;26044;50.864;20.658;2023-02-01T01:01:57;2.30;99.90
40340;DHT22;26044;50.864;20.658;2023-02-01T01:04:24;2.30;99.90
40340;DHT22;26044;50.864;20.658;2023-02-01T01:06:50;2.30;99.90
40340;DHT22;26044;50.864;20.658;2023-02-01T01:09:18;2.20;99.90
40340;DHT22;26044;50.864;20.658;2023-02-01T01:11:45;2.20;99.90
40340;DHT22;26044;50.864;20.658;2023-02-01T01:14:12;2.10;99.90
40340;DHT22;26044;50.864;20.658;2023-02-01T01:16:39;2.00;99.90
40340;DHT22;26044;50.864;20.658;2023-02-01T01:19:05;1.90;99.90
40340;DHT22;26044;50.864;20.658;2023-02-01T01:21:33;1.80;99.90
40340;DHT22;26044;50.864;20.658;2023-02-01T01:24:00;1.70;99.90
40340;DHT22;26044;50.864;20.658;2023-02-01T01:26:28;1.80;99.90
40340;DHT22;26044;50.864;20.658;2023-02-01T01:28:57;1.70;99.90
40340;DHT22;26044;50.864;20.658;2023-02-01T01:31:26;1.70;99.90
40340;DHT22;26044;50.864;20.658;2023-02-01T01:33:55;1.60;99.90
40340;DHT22;26044;50.864;20.658;2023-02-01T01:36:22;1.70;99.90
40340;DHT22;26044;50.864;20.658;2023-02-01T01:38:50;1.60;99.90
40340;DHT22;26044;50.864;20.658;2023-02-01T01:41:19;1.60;99.90
40340;DHT22;26044;50.864;20.658;2023-02-01T01:46:22;1.60;99.90
40340;DHT22;26044;50.864;20.658;2023-02-01T01:48:53;1.60;99.90
40340;DHT22;26044;50.864;20.658;2023-02-01T01:51:27;1.60;99.90
40340;DHT22;26044;50.864;20.658;2023-02-01T01:54:20;1.70;99.90
40340;DHT22;26044;50.864;20.658;2023-02-01T01:56:51;1.60;99.90
40340;DHT22;26044;50.864;20.658;2023-02-01T01:59:22;1.60;99.90
40340;DHT22;26044;50.864;20.658;2023-02-01T02:01:52;1.60;99.90
40340;DHT22;26044;50.864;20.658;2023-02-01T02:04:19;1.70;99.90
40340;DHT22;26044;50.864;20.658;2023-02-01T02:07:09;1.70;99.90
40340;DHT22;26044;50.864;20.658;2023-02-01T02:09:37;1.70;99.90
40340;DHT22;26044;50.864;20.658;2023-02-01T02:12:09;1.70;99.90
40340;DHT22;26044;50.864;20.658;2023-02-01T02:14:37;1.70;99.90
40340;DHT22;26044;50.864;20.658;2023-02-01T02:17:30;1.70;99.90
40340;DHT22;26044;50.864;20.658;2023-02-01T02:29:01;1.70;99.90
40340;DHT22;26044;50.864;20.658;2023-02-01T02:31:55;1.70;99.90
40340;DHT22;26044;50.864;20.658;2023-02-01T02:35:08;1.70;99.90
40340;DHT22;26044;50.864;20.658;2023-02-01T02:37:51;1.70;99.90
40340;DHT22;26044;50.864;20.658;2023-02-01T02:40:51;1.70;99.90
40340;DHT22;26044;50.864;20.658;2023-02-01T02:43:30;1.60;99.90
40340;DHT22;26044;50.864;20.658;2023-02-01T02:46:40;1.70;99.90
40340;DHT22;26044;50.864;20.658;2023-02-01T02:49:51;1.70;99.90
40340;DHT22;26044;50.864;20.658;2023-02-01T02:52:44;1.70;99.90
40340;DHT22;26044;50.864;20.658;2023-02-01T02:55:31;1.80;99.90
40340;DHT22;26044;50.864;20.658;2023-02-01T02:58:00;1.70;99.90
40340;DHT22;26044;50.864;20.658;2023-02-01T03:00:45;1.80;99.90
40340;DHT22;26044;50.864;20.658;2023-02-01T03:03:31;1.80;99.90
40340;DHT22;26044;50.864;20.658;2023-02-01T03:06:17;1.70;99.90
40340;DHT22;26044;50.864;20.658;2023-02-01T03:08:45;1.70;99.90
40340;DHT22;26044;50.864;20.658;2023-02-01T03:11:14;1.80;99.90
40340;DHT22;26044;50.864;20.658;2023-02-01T03:13:52;1.70;99.90
40340;DHT22;26044;50.864;20.658;2023-02-01T03:19:15;1.80;99.90
40340;DHT22;26044;50.864;20.658;2023-02-01T03:24:40;1.80;99.90
40340;DHT22;26044;50.864;20.658;2023-02-01T03:27:34;1.80;99.90
40340;DHT22;26044;50.864;20.658;2023-02-01T03:30:33;1.80;99.90
40340;DHT22;26044;50.864;20.658;2023-02-01T03:33:00;1.80;99.90
40340;DHT22;26044;50.864;20.658;2023-02-01T03:38:12;1.80;99.90
40340;DHT22;26044;50.864;20.658;2023-02-01T03:40:46;1.80;99.90
40340;DHT22;26044;50.864;20.658;2023-02-01T03:43:17;1.90;99.90
40340;DHT22;26044;50.864;20.658;2023-02-01T03:45:52;1.80;99.90
40340;DHT22;26044;50.864;20.658;2023-02-01T03:48:21;1.90;99.90
40340;DHT22;26044;50.864;20.658;2023-02-01T03:50:52;1.90;99.90
40340;DHT22;26044;50.864;20.658;2023-02-01T03:53:22;1.90;99.90
40340;DHT22;26044;50.864;20.658;2023-02-01T03:55:58;1.90;99.90
40340;DHT22;26044;50.864;20.658;2023-02-01T03:58:25;1.90;99.90
40340;DHT22;26044;50.864;20.658;2023-02-01T04:00:56;1.90;99.90
40340;DHT22;26044;50.864;20.658;2023-02-01T04:03:25;1.90;99.90
40340;DHT22;26044;50.864;20.658;2023-02-01T04:05:53;1.90;99.90
40340;DHT22;26044;50.864;20.658;2023-02-01T04:08:20;1.90;99.90
40340;DHT22;26044;50.864;20.658;2023-02-01T04:10:47;1.90;99.90
40340;DHT22;26044;50.864;20.658;2023-02-01T04:13:14;1.90;99.90
40340;DHT22;26044;50.864;20.658;2023-02-01T04:15:41;2.00;99.90
40340;DHT22;26044;50.864;20.658;2023-02-01T04:18:08;1.90;99.90
40340;DHT22;26044;50.864;20.658;2023-02-01T04:20:35;1.90;99.90
40340;DHT22;26044;50.864;20.658;2023-02-01T04:23:02;1.90;99.90
40340;DHT22;26044;50.864;20.658;2023-02-01T04:25:29;2.00;99.90
40340;DHT22;26044;50.864;20.658;2023-02-01T04:27:57;1.90;99.90
40340;DHT22;26044;50.864;20.658;2023-02-01T04:30:26;1.90;99.90
40340;DHT22;26044;50.864;20.658;2023-02-01T04:32:53;1.90;99.90
40340;DHT22;26044;50.864;20.658;2023-02-01T04:35:28;1.90;99.90
40340;DHT22;26044;50.864;20.658;2023-02-01T04:37:55;2.00;99.90
40340;DHT22;26044;50.864;20.658;2023-02-01T04:40:22;2.00;99.90
40340;DHT22;26044;50.864;20.658;2023-02-01T04:42:49;2.00;99.90
40340;DHT22;26044;50.864;20.658;2023-02-01T04:45:16;2.00;99.90
40340;DHT22;26044;50.864;20.658;2023-02-01T04:47:45;2.00;99.90
40340;DHT22;26044;50.864;20.658;2023-02-01T04:50:16;2.00;99.90
40340;DHT22;26044;50.864;20.658;2023-02-01T04:52:43;2.00;99.90
40340;DHT22;26044;50.864;20.658;2023-02-01T04:55:12;2.00;99.90
40340;DHT22;26044;50.864;20.658;2023-02-01T04:57:40;2.10;99.90
40340;DHT22;26044;50.864;20.658;2023-02-01T05:00:08;2.00;99.90
40340;DHT22;26044;50.864;20.658;2023-02-01T05:02:36;2.00;99.90
40340;DHT22;26044;50.864;20.658;2023-02-01T05:05:04;2.00;99.90
40340;DHT22;26044;50.864;20.658;2023-02-01T05:07:31;2.00;99.90
40340;DHT22;26044;50.864;20.658;2023-02-01T05:09:58;2.00;99.90
40340;DHT22;26044;50.864;20.658;2023-02-01T05:12:25;2.00;99.90
40340;DHT22;26044;50.864;20.658;2023-02-01T05:15:10;2.00;99.90
40340;DHT22;26044;50.864;20.658;2023-02-01T05:17:37;2.00;99.90
40340;DHT22;26044;50.864;20.658;2023-02-01T05:20:07;2.00;99.90
40340;DHT22;26044;50.864;20.658;2023-02-01T05:22:34;2.00;99.90
40340;DHT22;26044;50.864;20.658;2023-02-01T05:25:06;2.00;99.90
40340;DHT22;26044;50.864;20.658;2023-02-01T05:27:34;2.00;99.90
40340;DHT22;26044;50.864;20.658;2023-02-01T05:30:02;2.00;99.90
40340;DHT22;26044;50.864;20.658;2023-02-01T05:32:29;2.10;99.90
40340;DHT22;26044;50.864;20.658;2023-02-01T05:34:56;2.10;99.90
40340;DHT22;26044;50.864;20.658;2023-02-01T05:37:24;2.00;99.90
40340;DHT22;26044;50.864;20.658;2023-02-01T05:39:59;2.00;99.90
40340;DHT22;26044;50.864;20.658;2023-02-01T05:42:26;2.00;99.90
40340;DHT22;26044;50.864;20.658;2023-02-01T05:44:53;2.00;99.90
40340;DHT22;26044;50.864;20.658;2023-02-01T05:47:21;2.00;99.90
40340;DHT22;26044;50.864;20.658;2023-02-01T05:49:48;2.00;99.90
40340;DHT22;26044;50.864;20.658;2023-02-01T05:52:16;2.00;99.90
40340;DHT22;26044;50.864;20.658;2023-02-01T05:54:46;2.00;99.90
40340;DHT22;26044;50.864;20.658;2023-02-01T05:57:18;2.00;99.90
40340;DHT22;26044;50.864;20.658;2023-02-01T05:59:45;2.00;99.90
40340;DHT22;26044;50.864;20.658;2023-02-01T06:02:12;2.00;99.90
40340;DHT22;26044;50.864;20.658;2023-02-01T06:04:40;2.00;99.90
40340;DHT22;26044;50.864;20.658;2023-02-01T06:07:15;2.00;99.90
40340;DHT22;26044;50.864;20.658;2023-02-01T06:09:55;2.00;99.90
40340;DHT22;26044;50.864;20.658;2023-02-01T06:12:22;2.10;99.90
40340;DHT22;26044;50.864;20.658;2023-02-01T06:14:49;2.00;99.90
40340;DHT22;26044;50.864;20.658;2023-02-01T06:17:16;2.00;99.90
40340;DHT22;26044;50.864;20.658;2023-02-01T06:19:43;2.00;99.90
40340;DHT22;26044;50.864;20.658;2023-02-01T06:22:11;2.00;99.90
40340;DHT22;26044;50.864;20.658;2023-02-01T06:24:38;2.00;99.90
40340;DHT22;26044;50.864;20.658;2023-02-01T06:27:05;2.00;99.90
40340;DHT22;26044;50.864;20.658;2023-02-01T06:29:32;2.00;99.90
40340;DHT22;26044;50.864;20.658;2023-02-01T06:31:59;2.00;99.90
40340;DHT22;26044;50.864;20.658;2023-02-01T06:34:26;2.10;99.90
40340;DHT22;26044;50.864;20.658;2023-02-01T06:36:53;2.10;99.90
40340;DHT22;26044;50.864;20.658;2023-02-01T06:39:22;2.00;99.90
40340;DHT22;26044;50.864;20.658;2023-02-01T06:41:50;2.10;99.90
40340;DHT22;26044;50.864;20.658;2023-02-01T06:44:17;2.00;99.90
40340;DHT22;26044;50.864;20.658;2023-02-01T06:46:44;2.00;99.90
40340;DHT22;26044;50.864;20.658;2023-02-01T06:49:11;2.00;99.90
40340;DHT22;26044;50.864;20.658;2023-02-01T06:51:38;2.00;99.90
40340;DHT22;26044;50.864;20.658;2023-02-01T06:54:05;2.00;99.90
40340;DHT22;26044;50.864;20.658;2023-02-01T06:56:31;2.10;99.90
40340;DHT22;26044;50.864;20.658;2023-02-01T06:58:58;2.10;99.90
40340;DHT22;26044;50.864;20.658;2023-02-01T07:01:33;2.00;99.90
40340;DHT22;26044;50.864;20.658;2023-02-01T07:04:03;2.10;99.90
40340;DHT22;26044;50.864;20.658;2023-02-01T07:06:32;2.10;99.90
40340;DHT22;26044;50.864;20.658;2023-02-01T07:08:59;2.10;99.90
40340;DHT22;26044;50.864;20.658;2023-02-01T07:11:29;2.10;99.90
40340;DHT22;26044;50.864;20.658;2023-02-01T07:13:59;2.20;99.90
40340;DHT22;26044;50.864;20.658;2023-02-01T07:16:27;2.20;99.90
40340;DHT22;26044;50.864;20.658;2023-02-01T07:19:04;2.20;99.90
40340;DHT22;26044;50.864;20.658;2023-02-01T07:21:33;2.20;99.90
40340;DHT22;26044;50.864;20.658;2023-02-01T07:24:00;2.20;99.90
40340;DHT22;26044;50.864;20.658;2023-02-01T07:26:27;2.30;99.90
40340;DHT22;26044;50.864;20.658;2023-02-01T07:28:54;2.20;99.90
40340;DHT22;26044;50.864;20.658;2023-02-01T07:31:21;2.20;99.90
40340;DHT22;26044;50.864;20.658;2023-02-01T07:33:51;2.20;99.90
40340;DHT22;26044;50.864;20.658;2023-02-01T07:36:19;2.20;99.90
40340;DHT22;26044;50.864;20.658;2023-02-01T07:38:50;2.20;99.90
40340;DHT22;26044;50.864;20.658;2023-02-01T07:41:24;2.30;99.90
40340;DHT22;26044;50.864;20.658;2023-02-01T07:43:56;2.30;99.90
40340;DHT22;26044;50.864;20.658;2023-02-01T07:46:26;2.20;99.90
40340;DHT22;26044;50.864;20.658;2023-02-01T07:49:00;2.30;99.90
40340;DHT22;26044;50.864;20.658;2023-02-01T07:51:30;2.20;99.90
40340;DHT22;26044;50.864;20.658;2023-02-01T07:53:57;2.20;99.90
40340;DHT22;26044;50.864;20.658;2023-02-01T07:56:27;2.20;99.90
40340;DHT22;26044;50.864;20.658;2023-02-01T07:58:57;2.30;99.90
40340;DHT22;26044;50.864;20.658;2023-02-01T08:01:29;2.40;99.90
40340;DHT22;26044;50.864;20.658;2023-02-01T08:03:59;2.30;99.90
40340;DHT22;26044;50.864;20.658;2023-02-01T08:06:31;2.30;99.90
40340;DHT22;26044;50.864;20.658;2023-02-01T08:08:58;2.30;99.90
40340;DHT22;26044;50.864;20.658;2023-02-01T08:11:37;2.40;99.90
40340;DHT22;26044;50.864;20.658;2023-02-01T08:14:05;2.40;99.90
40340;DHT22;26044;50.864;20.658;2023-02-01T08:16:33;2.40;99.90
40340;DHT22;26044;50.864;20.658;2023-02-01T08:19:03;2.40;99.90
40340;DHT22;26044;50.864;20.658;2023-02-01T08:21:31;2.40;99.90
40340;DHT22;26044;50.864;20.658;2023-02-01T08:24:05;2.50;99.90
40340;DHT22;26044;50.864;20.658;2023-02-01T08:26:32;2.40;99.90
40340;DHT22;26044;50.864;20.658;2023-02-01T08:29:01;2.50;99.90
40340;DHT22;26044;50.864;20.658;2023-02-01T08:31:29;2.50;99.90
40340;DHT22;26044;50.864;20.658;2023-02-01T08:33:59;2.50;99.90
40340;DHT22;26044;50.864;20.658;2023-02-01T08:36:27;2.50;99.90
40340;DHT22;26044;50.864;20.658;2023-02-01T08:38:55;2.50;99.90
40340;DHT22;26044;50.864;20.658;2023-02-01T08:41:24;2.60;99.90
40340;DHT22;26044;50.864;20.658;2023-02-01T08:43:52;2.50;99.90
40340;DHT22;26044;50.864;20.658;2023-02-01T08:46:21;2.60;99.90
40340;DHT22;26044;50.864;20.658;2023-02-01T08:48:48;2.50;99.90
40340;DHT22;26044;50.864;20.658;2023-02-01T08:51:18;2.60;99.90
40340;DHT22;26044;50.864;20.658;2023-02-01T08:53:45;2.60;99.90
40340;DHT22;26044;50.864;20.658;2023-02-01T08:56:14;2.60;99.90
40340;DHT22;26044;50.864;20.658;2023-02-01T08:58:42;2.60;99.90
40340;DHT22;26044;50.864;20.658;2023-02-01T09:01:11;2.60;99.90
40340;DHT22;26044;50.864;20.658;2023-02-01T09:03:39;2.70;99.90
40340;DHT22;26044;50.864;20.658;2023-02-01T09:06:09;2.70;99.90
40340;DHT22;26044;50.864;20.658;2023-02-01T09:08:37;2.70;99.90
40340;DHT22;26044;50.864;20.658;2023-02-01T09:11:07;2.70;99.90
40340;DHT22;26044;50.864;20.658;2023-02-01T09:13:34;2.70;99.90
40340;DHT22;26044;50.864;20.658;2023-02-01T09:16:03;2.70;99.90
40340;DHT22;26044;50.864;20.658;2023-02-01T09:18:31;2.70;99.90
40340;DHT22;26044;50.864;20.658;2023-02-01T09:20:57;2.70;99.90
40340;DHT22;26044;50.864;20.658;2023-02-01T09:23:24;2.70;99.90
40340;DHT22;26044;50.864;20.658;2023-02-01T09:25:51;2.80;99.90
40340;DHT22;26044;50.864;20.658;2023-02-01T09:28:19;2.70;99.90
40340;DHT22;26044;50.864;20.658;2023-02-01T09:30:46;2.70;99.90
40340;DHT22;26044;50.864;20.658;2023-02-01T09:33:13;2.70;99.90
40340;DHT22;26044;50.864;20.658;2023-02-01T09:35:40;2.70;99.90
40340;DHT22;26044;50.864;20.658;2023-02-01T09:38:06;2.80;99.90
40340;DHT22;26044;50.864;20.658;2023-02-01T09:40:34;2.90;99.90
40340;DHT22;26044;50.864;20.658;2023-02-01T09:48:29;3.00;99.90
40340;DHT22;26044;50.864;20.658;2023-02-01T09:50:59;3.00;99.90
40340;DHT22;26044;50.864;20.658;2023-02-01T09:53:40;3.10;99.90
40340;DHT22;26044;50.864;20.658;2023-02-01T09:56:21;3.10;99.90
40340;DHT22;26044;50.864;20.658;2023-02-01T10:01:55;3.20;99.90
40340;DHT22;26044;50.864;20.658;2023-02-01T10:04:23;3.20;99.90
40340;DHT22;26044;50.864;20.658;2023-02-01T10:10:06;3.20;99.90
40340;DHT22;26044;50.864;20.658;2023-02-01T10:15:27;3.10;99.90
40340;DHT22;26044;50.864;20.658;2023-02-01T10:26:59;3.30;99.90
40340;DHT22;26044;50.864;20.658;2023-02-01T10:29:36;3.30;99.90
40340;DHT22;26044;50.864;20.658;2023-02-01T10:32:17;3.20;99.90
40340;DHT22;26044;50.864;20.658;2023-02-01T10:34:58;3.10;99.90
40340;DHT22;26044;50.864;20.658;2023-02-01T10:37:32;3.10;99.90
40340;DHT22;26044;50.864;20.658;2023-02-01T10:40:02;3.00;99.90
40340;DHT22;26044;50.864;20.658;2023-02-01T10:42:32;3.00;99.90
40340;DHT22;26044;50.864;20.658;2023-02-01T10:45:01;2.90;99.90
40340;DHT22;26044;50.864;20.658;2023-02-01T10:47:30;2.90;99.90
40340;DHT22;26044;50.864;20.658;2023-02-01T10:52:50;2.90;99.90
40340;DHT22;26044;50.864;20.658;2023-02-01T10:55:40;2.90;99.90
40340;DHT22;26044;50.864;20.658;2023-02-01T10:58:16;2.90;99.90
40340;DHT22;26044;50.864;20.658;2023-02-01T11:03:58;3.70;99.90
40340;DHT22;26044;50.864;20.658;2023-02-01T11:06:41;4.30;99.90
40340;DHT22;26044;50.864;20.658;2023-02-01T11:09:10;4.40;99.90
40340;DHT22;26044;50.864;20.658;2023-02-01T11:14:17;4.20;99.90
40340;DHT22;26044;50.864;20.658;2023-02-01T11:19:47;4.20;99.90
40340;DHT22;26044;50.864;20.658;2023-02-01T11:22:24;4.10;99.90
40340;DHT22;26044;50.864;20.658;2023-02-01T11:24:51;4.10;99.90
40340;DHT22;26044;50.864;20.658;2023-02-01T11:27:22;4.00;99.90
40340;DHT22;26044;50.864;20.658;2023-02-01T11:29:58;4.00;99.90
40340;DHT22;26044;50.864;20.658;2023-02-01T11:32:26;4.10;99.90
40340;DHT22;26044;50.864;20.658;2023-02-01T11:35:05;4.20;99.90
40340;DHT22;26044;50.864;20.658;2023-02-01T11:37:41;4.20;99.90
40340;DHT22;26044;50.864;20.658;2023-02-01T11:42:55;4.50;99.90
40340;DHT22;26044;50.864;20.658;2023-02-01T11:45:28;4.50;99.90
40340;DHT22;26044;50.864;20.658;2023-02-01T11:47:57;4.40;99.90
40340;DHT22;26044;50.864;20.658;2023-02-01T12:02:02;4.10;99.90
40340;DHT22;26044;50.864;20.658;2023-02-01T12:07:49;4.10;99.90
40340;DHT22;26044;50.864;20.658;2023-02-01T12:10:27;4.00;99.90
40340;DHT22;26044;50.864;20.658;2023-02-01T12:13:06;4.00;99.90
40340;DHT22;26044;50.864;20.658;2023-02-01T12:16:23;4.10;99.90
40340;DHT22;26044;50.864;20.658;2023-02-01T12:21:47;4.00;99.90
40340;DHT22;26044;50.864;20.658;2023-02-01T12:35:49;4.20;99.90
40340;DHT22;26044;50.864;20.658;2023-02-01T12:38:44;4.20;99.90
40340;DHT22;26044;50.864;20.658;2023-02-01T12:42:08;4.10;99.90
40340;DHT22;26044;50.864;20.658;2023-02-01T12:44:44;4.10;99.90
40340;DHT22;26044;50.864;20.658;2023-02-01T12:49:55;4.00;99.90
40340;DHT22;26044;50.864;20.658;2023-02-01T12:52:53;4.10;99.90
40340;DHT22;26044;50.864;20.658;2023-02-01T12:55:24;4.00;99.90
40340;DHT22;26044;50.864;20.658;2023-02-01T12:58:03;4.00;99.90
40340;DHT22;26044;50.864;20.658;2023-02-01T13:03:53;4.10;99.90
40340;DHT22;26044;50.864;20.658;2023-02-01T13:06:32;4.10;99.90
40340;DHT22;26044;50.864;20.658;2023-02-01T13:11:49;4.30;99.90
40340;DHT22;26044;50.864;20.658;2023-02-01T13:14:43;4.20;99.90
40340;DHT22;26044;50.864;20.658;2023-02-01T13:17:20;4.20;99.90
40340;DHT22;26044;50.864;20.658;2023-02-01T13:19:55;4.10;99.90
40340;DHT22;26044;50.864;20.658;2023-02-01T13:22:37;4.00;99.90
40340;DHT22;26044;50.864;20.658;2023-02-01T13:25:18;3.90;99.90
40340;DHT22;26044;50.864;20.658;2023-02-01T13:27:46;3.70;99.90
40340;DHT22;26044;50.864;20.658;2023-02-01T13:30:23;3.50;99.90
40340;DHT22;26044;50.864;20.658;2023-02-01T13:42:05;3.20;99.90
40340;DHT22;26044;50.864;20.658;2023-02-01T13:47:02;3.20;99.90
40340;DHT22;26044;50.864;20.658;2023-02-01T13:49:38;3.20;99.90
40340;DHT22;26044;50.864;20.658;2023-02-01T13:52:05;3.20;99.90
40340;DHT22;26044;50.864;20.658;2023-02-01T13:54:36;3.30;99.90
40340;DHT22;26044;50.864;20.658;2023-02-01T13:57:05;3.20;99.90
40340;DHT22;26044;50.864;20.658;2023-02-01T14:05:04;3.20;99.90
40340;DHT22;26044;50.864;20.658;2023-02-01T14:07:34;3.30;99.90
40340;DHT22;26044;50.864;20.658;2023-02-01T14:13:28;3.30;99.90
40340;DHT22;26044;50.864;20.658;2023-02-01T14:16:15;3.30;99.90
40340;DHT22;26044;50.864;20.658;2023-02-01T14:21:29;3.30;99.90
40340;DHT22;26044;50.864;20.658;2023-02-01T14:34:37;3.50;99.90
40340;DHT22;26044;50.864;20.658;2023-02-01T14:42:26;3.40;99.90
40340;DHT22;26044;50.864;20.658;2023-02-01T14:44:57;3.40;99.90
40340;DHT22;26044;50.864;20.658;2023-02-01T14:47:42;3.40;99.90
40340;DHT22;26044;50.864;20.658;2023-02-01T14:55:44;3.20;99.90
40340;DHT22;26044;50.864;20.658;2023-02-01T15:01:00;3.20;99.90
40340;DHT22;26044;50.864;20.658;2023-02-01T15:06:36;3.20;99.90
40340;DHT22;26044;50.864;20.658;2023-02-01T15:09:32;3.20;99.90
40340;DHT22;26044;50.864;20.658;2023-02-01T15:14:30;3.10;99.90
40340;DHT22;26044;50.864;20.658;2023-02-01T15:16:57;3.00;99.90
40340;DHT22;26044;50.864;20.658;2023-02-01T15:19:26;3.00;99.90
40340;DHT22;26044;50.864;20.658;2023-02-01T15:21:56;3.00;99.90
40340;DHT22;26044;50.864;20.658;2023-02-01T15:24:28;2.90;99.90
40340;DHT22;26044;50.864;20.658;2023-02-01T15:27:01;2.90;99.90
40340;DHT22;26044;50.864;20.658;2023-02-01T15:29:30;2.90;99.90
40340;DHT22;26044;50.864;20.658;2023-02-01T15:31:59;2.90;99.90
40340;DHT22;26044;50.864;20.658;2023-02-01T15:34:47;2.90;99.90
40340;DHT22;26044;50.864;20.658;2023-02-01T15:37:15;2.90;99.90
40340;DHT22;26044;50.864;20.658;2023-02-01T15:42:58;2.80;99.90
40340;DHT22;26044;50.864;20.658;2023-02-01T15:45:28;2.80;99.90
40340;DHT22;26044;50.864;20.658;2023-02-01T15:47:58;2.80;99.90
40340;DHT22;26044;50.864;20.658;2023-02-01T15:50:27;2.80;99.90
40340;DHT22;26044;50.864;20.658;2023-02-01T15:52:57;2.70;99.90
40340;DHT22;26044;50.864;20.658;2023-02-01T15:55:35;2.70;99.90
40340;DHT22;26044;50.864;20.658;2023-02-01T15:58:23;2.70;99.90
40340;DHT22;26044;50.864;20.658;2023-02-01T16:00:55;2.70;99.90
40340;DHT22;26044;50.864;20.658;2023-02-01T16:03:36;2.60;99.90
40340;DHT22;26044;50.864;20.658;2023-02-01T16:06:12;2.60;99.90
40340;DHT22;26044;50.864;20.658;2023-02-01T16:08:55;2.60;99.90
40340;DHT22;26044;50.864;20.658;2023-02-01T16:11:28;2.60;99.90
40340;DHT22;26044;50.864;20.658;2023-02-01T16:13:58;2.50;99.90
40340;DHT22;26044;50.864;20.658;2023-02-01T16:16:27;2.50;99.90
40340;DHT22;26044;50.864;20.658;2023-02-01T16:18:54;2.50;99.90
40340;DHT22;26044;50.864;20.658;2023-02-01T16:21:21;2.50;99.90
40340;DHT22;26044;50.864;20.658;2023-02-01T16:23:52;2.40;99.90
40340;DHT22;26044;50.864;20.658;2023-02-01T16:26:19;2.40;99.90
40340;DHT22;26044;50.864;20.658;2023-02-01T16:28:47;2.40;99.90
40340;DHT22;26044;50.864;20.658;2023-02-01T16:31:16;2.30;99.90
40340;DHT22;26044;50.864;20.658;2023-02-01T16:33:53;2.40;99.90
40340;DHT22;26044;50.864;20.658;2023-02-01T16:36:20;2.40;99.90
40340;DHT22;26044;50.864;20.658;2023-02-01T16:38:48;2.40;99.90
40340;DHT22;26044;50.864;20.658;2023-02-01T16:41:18;2.30;99.90
40340;DHT22;26044;50.864;20.658;2023-02-01T17:18:31;2.30;99.90
40340;DHT22;26044;50.864;20.658;2023-02-01T17:21:00;2.30;99.90
40340;DHT22;26044;50.864;20.658;2023-02-01T17:23:31;2.30;99.90
40340;DHT22;26044;50.864;20.658;2023-02-01T17:25:58;2.30;99.90
40340;DHT22;26044;50.864;20.658;2023-02-01T17:28:29;2.30;99.90
40340;DHT22;26044;50.864;20.658;2023-02-01T17:30:56;2.30;99.90
40340;DHT22;26044;50.864;20.658;2023-02-01T17:33:28;2.30;99.90
40340;DHT22;26044;50.864;20.658;2023-02-01T17:36:03;2.20;99.90
40340;DHT22;26044;50.864;20.658;2023-02-01T17:38:32;2.20;99.90
40340;DHT22;26044;50.864;20.658;2023-02-01T17:40:59;2.20;99.90
40340;DHT22;26044;50.864;20.658;2023-02-01T17:43:26;2.20;99.90
40340;DHT22;26044;50.864;20.658;2023-02-01T17:46:10;2.20;99.90
40340;DHT22;26044;50.864;20.658;2023-02-01T17:48:38;2.20;99.90
40340;DHT22;26044;50.864;20.658;2023-02-01T17:51:17;2.30;99.90
40340;DHT22;26044;50.864;20.658;2023-02-01T17:53:46;2.30;99.90
40340;DHT22;26044;50.864;20.658;2023-02-01T17:56:23;2.20;99.90
40340;DHT22;26044;50.864;20.658;2023-02-01T17:58:51;2.20;99.90
40340;DHT22;26044;50.864;20.658;2023-02-01T18:01:40;2.30;99.90
40340;DHT22;26044;50.864;20.658;2023-02-01T18:04:18;2.30;99.90
40340;DHT22;26044;50.864;20.658;2023-02-01T18:06:45;2.30;99.90
40340;DHT22;26044;50.864;20.658;2023-02-01T18:09:13;2.20;99.90
40340;DHT22;26044;50.864;20.658;2023-02-01T18:11:41;2.30;99.90
40340;DHT22;26044;50.864;20.658;2023-02-01T18:14:11;2.30;99.90
40340;DHT22;26044;50.864;20.658;2023-02-01T18:16:46;2.30;99.90
40340;DHT22;26044;50.864;20.658;2023-02-01T18:19:25;2.30;99.90
40340;DHT22;26044;50.864;20.658;2023-02-01T18:21:59;2.30;99.90
40340;DHT22;26044;50.864;20.658;2023-02-01T18:24:28;2.30;99.90
40340;DHT22;26044;50.864;20.658;2023-02-01T18:26:58;2.30;99.90
40340;DHT22;26044;50.864;20.658;2023-02-01T18:29:25;2.30;99.90
40340;DHT22;26044;50.864;20.658;2023-02-01T18:32:01;2.30;99.90
40340;DHT22;26044;50.864;20.658;2023-02-01T18:34:31;2.30;99.90
40340;DHT22;26044;50.864;20.658;2023-02-01T18:37:00;2.30;99.90
40340;DHT22;26044;50.864;20.658;2023-02-01T18:39:31;2.40;99.90
40340;DHT22;26044;50.864;20.658;2023-02-01T18:41:58;2.30;99.90
40340;DHT22;26044;50.864;20.658;2023-02-01T18:44:25;2.40;99.90
40340;DHT22;26044;50.864;20.658;2023-02-01T18:47:02;2.30;99.90
40340;DHT22;26044;50.864;20.658;2023-02-01T18:49:28;2.40;99.90
40340;DHT22;26044;50.864;20.658;2023-02-01T18:52:03;2.40;99.90
40340;DHT22;26044;50.864;20.658;2023-02-01T18:54:33;2.40;99.90
40340;DHT22;26044;50.864;20.658;2023-02-01T18:57:00;2.40;99.90
40340;DHT22;26044;50.864;20.658;2023-02-01T18:59:32;2.40;99.90
40340;DHT22;26044;50.864;20.658;2023-02-01T19:01:59;2.40;99.90
40340;DHT22;26044;50.864;20.658;2023-02-01T19:04:31;2.40;99.90